createdAt,value
2019-04-21T00:00:31.895Z,15.20
2019-04-21T00:05:58.939Z,15.40
2019-04-21T00:11:03.008Z,15.20
2019-04-21T00:15:53.916Z,15.20
2019-04-21T00:20:56.202Z,15.10
2019-04-21T00:26:07.692Z,14.70
2019-04-21T00:31:23.168Z,14.80
2019-04-21T00:36:16.213Z,14.20
2019-04-21T00:41:36.712Z,13.90
2019-04-21T00:46:37.450Z,13.80
2019-04-21T00:51:54.159Z,13.50
2019-04-21T00:56:56.682Z,13.60
2019-04-21T01:01:55.491Z,13.90
2019-04-21T01:07:05.596Z,13.60
2019-04-21T01:12:09.123Z,13.00
2019-04-21T01:17:20.245Z,12.80
2019-04-21T01:21:59.207Z,12.80
2019-04-21T01:27:12.675Z,12.60
2019-04-21T01:32:29.678Z,12.30
2019-04-21T01:37:40.820Z,12.20
2019-04-21T01:42:43.232Z,12.20
2019-04-21T01:47:46.312Z,12.20
2019-04-21T01:53:05.935Z,12.70
2019-04-21T01:58:01.970Z,12.60
2019-04-21T02:03:26.415Z,12.40
2019-04-21T02:08:15.287Z,12.30
2019-04-21T02:13:21.693Z,12.00
2019-04-21T02:18:27.680Z,11.60
2019-04-21T02:23:38.445Z,11.90
2019-04-21T02:39:06.213Z,12.10
2019-04-21T02:44:12.369Z,12.10
2019-04-21T02:49:37.732Z,12.10
2019-04-21T02:54:41.745Z,11.90
2019-04-21T02:59:33.674Z,11.40
2019-04-21T03:09:46.053Z,11.30
2019-04-21T03:15:04.057Z,10.60
2019-04-21T03:30:44.990Z,11.20
2019-04-21T03:35:45.533Z,10.90
2019-04-21T03:45:36.931Z,10.90
2019-04-21T03:55:53.304Z,11.20
2019-04-21T04:01:11.731Z,11.40
2019-04-21T04:06:28.063Z,11.20
2019-04-21T04:11:41.506Z,11.10
2019-04-21T04:16:47.457Z,11.00
2019-04-21T04:22:04.348Z,10.90
2019-04-21T04:31:52.855Z,11.30
2019-04-21T04:37:12.238Z,11.50
2019-04-21T04:42:27.221Z,11.50
2019-04-21T04:47:35.284Z,11.10
2019-04-21T04:52:34.525Z,10.90
2019-04-21T04:57:47.039Z,10.90
2019-04-21T05:12:44.353Z,11.10
2019-04-21T05:17:50.936Z,11.10
2019-04-21T05:22:53.147Z,11.10
2019-04-21T05:27:52.464Z,11.10
2019-04-21T05:33:27.572Z,10.90
2019-04-21T05:38:41.818Z,11.60
2019-04-21T05:43:51.654Z,11.90
2019-04-21T05:49:05.144Z,11.90
2019-04-21T05:54:14.730Z,11.90
2019-04-21T05:59:12.810Z,12.10
2019-04-21T06:04:34.748Z,12.10
2019-04-21T06:09:25.504Z,12.40
2019-04-21T06:14:42.207Z,12.40
2019-04-21T06:19:43.776Z,12.30
2019-04-21T06:24:54.678Z,12.50
2019-04-21T06:29:49.117Z,12.30
2019-04-21T06:40:19.947Z,12.30
2019-04-21T06:45:06.208Z,12.60
2019-04-21T06:50:12.103Z,12.90
2019-04-21T06:55:13.850Z,13.20
2019-04-21T07:00:19.601Z,13.50
2019-04-21T07:05:30.416Z,13.90
2019-04-21T07:10:33.264Z,13.60
2019-04-21T07:15:43.519Z,14.00
2019-04-21T07:20:50.530Z,14.30
2019-04-21T07:25:54.889Z,14.50
2019-04-21T07:30:59.472Z,14.40
2019-04-21T07:36:01.348Z,14.70
2019-04-21T07:40:59.533Z,14.60
2019-04-21T07:46:02.679Z,14.80
2019-04-21T07:51:37.713Z,15.10
2019-04-21T07:56:28.796Z,15.60
2019-04-21T08:01:50.766Z,15.50
2019-04-21T08:06:51.928Z,16.40
2019-04-21T08:11:51.742Z,16.90
2019-04-21T08:17:04.705Z,17.30
2019-04-21T08:22:11.066Z,17.50
2019-04-21T08:27:18.966Z,18.40
2019-04-21T08:32:26.631Z,18.50
2019-04-21T08:37:24.171Z,18.80
2019-04-21T08:42:35.178Z,18.50
2019-04-21T08:47:33.317Z,17.70
2019-04-21T08:52:45.708Z,18.10
2019-04-21T08:58:02.172Z,18.00
2019-04-21T09:03:02.375Z,18.50
2019-04-21T09:08:06.702Z,19.00
2019-04-21T09:13:04.967Z,19.60
2019-04-21T09:18:08.493Z,19.60
2019-04-21T09:23:19.418Z,19.80
2019-04-21T09:28:21.184Z,20.40
2019-04-21T09:33:11.656Z,20.60
2019-04-21T09:38:26.253Z,20.90
2019-04-21T09:43:31.730Z,20.90
2019-04-21T15:31:33.921Z,25.50
2019-04-21T15:36:35.192Z,24.90
2019-04-21T15:41:42.741Z,24.90
2019-04-21T15:46:48.178Z,24.40
2019-04-21T15:51:55.913Z,24.60
2019-04-21T15:57:01.232Z,24.90
2019-04-21T16:02:22.588Z,25.10
2019-04-21T16:07:29.935Z,25.20
2019-04-21T16:12:36.038Z,25.00
2019-04-21T16:17:39.693Z,24.80
2019-04-21T16:22:44.419Z,24.80
2019-04-21T16:27:49.180Z,24.90
2019-04-21T16:32:52.785Z,25.10
2019-04-21T16:38:02.527Z,25.30
2019-04-21T16:43:07.978Z,25.00
2019-04-21T16:48:12.957Z,24.60
2019-04-21T16:53:28.234Z,24.00
2019-04-21T16:58:36.745Z,24.00
2019-04-21T17:03:42.435Z,23.60
2019-04-21T17:08:50.469Z,23.20
2019-04-21T17:14:00.539Z,23.40
2019-04-21T17:19:13.688Z,23.20
2019-04-21T17:24:10.809Z,23.30
2019-04-21T17:29:14.742Z,23.10
2019-04-21T17:34:24.640Z,22.90
2019-04-21T17:39:28.916Z,22.40
2019-04-21T17:44:35.091Z,22.10
2019-04-21T17:49:39.250Z,22.10
2019-04-21T17:54:51.242Z,22.20
2019-04-21T18:00:25.400Z,21.80
2019-04-21T18:05:26.027Z,21.50
2019-04-21T18:10:27.727Z,21.20
2019-04-21T18:15:38.266Z,21.10
2019-04-21T18:20:28.295Z,20.60
2019-04-21T18:25:45.259Z,20.20
2019-04-21T18:30:48.932Z,19.90
2019-04-21T18:36:06.362Z,20.10
2019-04-21T18:41:09.945Z,20.00
2019-04-21T18:46:55.394Z,19.70
2019-04-21T18:51:59.609Z,19.80
2019-04-21T18:57:08.070Z,19.70
2019-04-21T19:02:09.900Z,19.60
2019-04-21T19:07:25.533Z,19.30
2019-04-21T19:13:08.054Z,19.20
2019-04-21T19:18:30.712Z,19.00
2019-04-21T19:22:47.699Z,19.40
2019-04-21T19:28:03.440Z,19.60
2019-04-21T19:33:10.183Z,19.80
2019-04-21T19:38:03.612Z,19.40
2019-04-21T19:43:12.560Z,19.50
2019-04-21T19:48:24.206Z,19.40
2019-04-21T19:53:32.892Z,19.40
2019-04-21T19:58:31.245Z,19.00
2019-04-21T20:03:28.485Z,19.00
2019-04-21T20:08:43.407Z,18.80
2019-04-21T20:14:27.606Z,19.00
2019-04-21T20:18:54.592Z,18.50
2019-04-21T20:24:04.831Z,17.80
2019-04-21T20:29:15.236Z,17.70
2019-04-21T20:34:34.265Z,17.90
2019-04-21T20:39:20.352Z,17.60
2019-04-21T20:44:43.801Z,17.70
2019-04-21T20:49:39.762Z,17.80
2019-04-21T20:54:48.269Z,18.00
2019-04-21T21:00:03.220Z,17.60
2019-04-21T21:04:58.989Z,17.60
2019-04-21T21:10:16.621Z,17.50
2019-04-21T21:15:18.301Z,17.40
2019-04-21T21:20:31.014Z,17.50
2019-04-21T21:25:41.897Z,17.20
2019-04-21T21:30:34.606Z,16.90
2019-04-21T21:35:38.327Z,16.20
2019-04-21T21:41:16.404Z,15.90
2019-04-21T21:46:28.621Z,15.60
2019-04-21T21:51:33.066Z,15.40
2019-04-21T21:56:25.187Z,15.50
2019-04-21T22:01:36.585Z,15.10
2019-04-21T22:06:42.065Z,14.60
2019-04-21T22:11:42.177Z,14.50
2019-04-21T22:17:00.967Z,14.50
2019-04-21T22:22:09.744Z,14.60
2019-04-21T22:26:56.972Z,14.70
2019-04-21T22:32:09.486Z,14.60
2019-04-21T22:37:23.157Z,14.60
2019-04-21T22:42:21.482Z,14.30
2019-04-21T22:47:23.786Z,14.40
2019-04-21T22:52:27.467Z,14.50
2019-04-21T22:57:32.538Z,14.40
2019-04-21T23:02:35.744Z,14.10
2019-04-21T23:07:51.269Z,14.00
2019-04-21T23:12:48.211Z,13.80
2019-04-21T23:18:08.041Z,14.00
2019-04-21T23:23:19.150Z,13.80
2019-04-21T23:28:16.110Z,13.90
2019-04-21T23:33:12.284Z,13.80
2019-04-21T23:38:14.759Z,13.90
2019-04-21T23:43:24.154Z,13.90
2019-04-21T23:48:36.523Z,13.60
2019-04-21T23:53:33.333Z,13.30
2019-04-21T23:58:37.093Z,13.00
